Time;durP1;ratioP1;P1;durP2;ratioP2;P2;SDS_P1;SDS_P2;PMS_P1;PMS_P2;Temp;Humidity;BMP_temperature;BMP_pressure;BME280_temperature;BME280_humidity;BME280_pressure;Samples;Min_cycle;Max_cycle;Signal;HPM_P1;HPM_P2
2022/12/19 00:01:18;;;;;;;17.48;11.88;;;;;;;4.74;58.67;100792.25;5078767;28;20053;-81
2022/12/19 00:03:48;;;;;;;17.58;12.02;;;;;;;4.79;58.12;100789.53;5078657;28;20056;-82
2022/12/19 00:06:16;;;;;;;20.08;12.32;;;;;;;4.73;59.55;100794.19;5070983;28;20041;-81
2022/12/19 00:08:48;;;;;;;19.70;11.85;;;;;;;4.71;60.00;100784.53;5059508;28;20056;-88
2022/12/19 00:11:17;;;;;;;19.02;11.65;;;;;;;4.96;59.53;100783.81;5070712;28;20064;-85
2022/12/19 00:13:49;;;;;;;21.23;12.77;;;;;;;4.99;59.29;100783.28;5080945;28;20052;-86
2022/12/19 00:16:18;;;;;;;17.58;12.05;;;;;;;4.92;58.69;100768.91;5074742;28;20060;-87
2022/12/19 00:18:48;;;;;;;20.63;12.88;;;;;;;4.92;58.72;100772.47;5080269;28;20048;-89
2022/12/19 00:21:19;;;;;;;19.73;11.70;;;;;;;4.92;62.18;100766.13;5076487;28;20059;-88
2022/12/19 00:23:50;;;;;;;17.25;12.10;;;;;;;5.16;62.22;100763.72;5075876;28;20052;-92
2022/12/19 00:26:19;;;;;;;20.60;13.60;;;;;;;5.29;60.78;100761.31;5078961;28;20055;-81
2022/12/19 00:28:57;;;;;;;20.90;13.13;;;;;;;5.15;59.64;100759.31;5075432;28;20059;-81
2022/12/19 00:31:25;;;;;;;19.33;11.65;;;;;;;5.37;58.42;100757.16;5060941;28;20048;-82
2022/12/19 00:33:55;;;;;;;18.60;11.63;;;;;;;5.32;58.30;100751.63;5076366;28;20060;-81
2022/12/19 00:36:25;;;;;;;17.88;12.25;;;;;;;5.26;58.16;100756.31;5072220;28;20056;-86
2022/12/19 00:38:54;;;;;;;21.15;12.95;;;;;;;5.14;58.51;100752.94;5072681;28;20424;-82
2022/12/19 00:41:23;;;;;;;17.92;11.40;;;;;;;5.27;58.34;100751.59;5055491;28;20049;-85
2022/12/19 00:43:53;;;;;;;18.67;11.70;;;;;;;5.33;58.83;100755.22;5074281;28;20049;-82
2022/12/19 00:46:21;;;;;;;;;;;;;;;4.94;59.43;100739.91;5072498;28;20511;-85
2022/12/19 00:48:49;;;;;;;19.25;11.20;;;;;;;5.08;58.96;100756.78;5069724;28;19927;-82
2022/12/19 00:51:20;;;;;;;20.85;12.40;;;;;;;5.02;59.19;100750.44;5064656;28;20071;-84
2022/12/19 00:53:49;;;;;;;21.05;11.77;;;;;;;5.12;59.12;100752.38;5071398;28;20052;-84
2022/12/19 00:56:23;;;;;;;19.70;11.90;;;;;;;5.26;60.67;100739.72;5069118;28;20053;-83
2022/12/19 00:58:52;;;;;;;21.85;12.40;;;;;;;5.05;61.89;100738.03;5076199;28;20470;-83
2022/12/19 01:01:22;;;;;;;21.10;12.50;;;;;;;5.21;61.91;100725.09;5071255;28;20052;-83
2022/12/19 01:03:50;;;;;;;22.48;12.90;;;;;;;5.15;61.90;100718.72;5068951;28;20059;-83
2022/12/19 01:06:18;;;;;;;20.00;12.38;;;;;;;4.72;63.61;100704.22;5070368;28;20064;-83
2022/12/19 01:08:52;;;;;;;26.73;15.55;;;;;;;4.69;66.39;100702.00;5073303;28;20048;-83
2022/12/19 01:12:44;;;;;;;21.48;13.43;;;;;;;4.58;65.93;100714.09;5072772;28;20045;-82
2022/12/19 01:14:07;;;;;;;24.67;14.80;;;;;;;4.40;68.68;100709.88;5071228;28;20079;-85
2022/12/19 01:16:34;;;;;;;28.70;17.00;;;;;;;4.37;68.88;100711.22;5071222;28;20052;-83
2022/12/19 01:19:02;;;;;;;23.83;13.95;;;;;;;4.11;67.56;100721.25;5076065;28;20045;-83
2022/12/19 01:21:36;;;;;;;20.85;12.85;;;;;;;4.36;67.70;100715.06;5069268;28;20484;-85
2022/12/19 01:24:05;;;;;;;21.98;14.18;;;;;;;4.22;66.77;100711.13;5072286;28;20044;-85
2022/12/19 01:26:42;;;;;;;21.92;13.48;;;;;;;4.41;66.93;100706.84;5075217;28;20476;-84
2022/12/19 01:29:09;;;;;;;21.73;12.68;;;;;;;4.36;66.39;100709.56;5067931;28;20060;-85
2022/12/19 01:31:37;;;;;;;20.50;12.90;;;;;;;4.35;66.37;100713.44;5075435;28;20060;-85
2022/12/19 01:34:04;;;;;;;19.95;12.68;;;;;;;4.54;66.87;100718.50;5074810;28;20508;-83
2022/12/19 01:36:34;;;;;;;22.48;13.35;;;;;;;4.65;67.24;100714.69;5072519;28;20413;-90
2022/12/19 01:39:01;;;;;;;22.02;13.55;;;;;;;4.83;66.87;100716.97;5067288;28;20053;-85
2022/12/19 01:41:29;;;;;;;21.88;13.27;;;;;;;4.93;65.47;100718.91;5075840;28;20485;-88
2022/12/19 01:43:59;;;;;;;19.33;12.68;;;;;;;5.04;64.91;100704.06;5074899;28;20056;-88
2022/12/19 01:46:31;;;;;;;20.00;12.00;;;;;;;5.09;64.71;100708.78;5082095;28;20477;-86
2022/12/19 01:49:01;;;;;;;20.02;12.63;;;;;;;5.09;64.62;100703.25;5071302;28;20440;-86
2022/12/19 01:51:39;;;;;;;21.27;12.80;;;;;;;5.10;65.02;100721.47;5073433;28;20045;-83
2022/12/19 01:54:09;;;;;;;19.67;12.85;;;;;;;5.21;63.59;100720.41;5070914;28;20071;-84
2022/12/19 01:56:46;;;;;;;18.63;12.13;;;;;;;5.21;63.49;100731.44;5067326;28;20512;-84
2022/12/19 01:59:17;;;;;;;19.73;12.07;;;;;;;5.16;63.18;100706.56;5072080;28;20048;-82
2022/12/19 02:01:47;;;;;;;20.55;13.30;;;;;;;5.30;62.97;100701.34;5081351;28;20045;-76
2022/12/19 02:04:15;;;;;;;;;;;;;;;5.27;62.72;100708.25;5078009;28;20049;-77
2022/12/19 02:06:47;;;;;;;17.60;11.05;;;;;;;5.32;62.04;100679.00;5077202;28;19943;-77
2022/12/19 09:40:17;;;;;;;13.35;9.27;;;;;;;8.62;71.04;100427.94;5625220;22;1504398;-63
2022/12/19 09:43:03;;;;;;;15.10;9.82;;;;;;;8.70;70.84;100425.31;6182557;23;20429;-62
2022/12/19 09:45:49;;;;;;;13.73;8.95;;;;;;;8.78;70.53;100436.84;6184152;23;20044;-63
2022/12/19 09:48:19;;;;;;;13.25;9.38;;;;;;;8.79;70.24;100422.66;6183405;23;20021;-63
2022/12/19 09:50:54;;;;;;;14.13;8.98;;;;;;;8.86;70.53;100438.91;6184356;23;20029;-64
2022/12/19 09:53:32;;;;;;;12.25;9.05;;;;;;;8.78;72.11;100473.78;6183010;23;20029;-64
2022/12/19 09:56:03;;;;;;;14.27;10.05;;;;;;;8.76;71.11;100477.97;6184930;23;20033;-63
2022/12/19 09:58:34;;;;;;;12.60;9.02;;;;;;;8.74;71.08;100448.56;6183662;23;20025;-63
2022/12/19 10:01:07;;;;;;;14.52;8.70;;;;;;;8.85;70.68;100432.53;6185103;23;20438;-64
2022/12/19 10:03:38;;;;;;;13.40;9.02;;;;;;;8.92;70.45;100437.72;6183884;23;20025;-65
2022/12/19 10:06:15;;;;;;;13.27;9.13;;;;;;;8.96;69.97;100449.84;6184135;23;20032;-64
2022/12/19 10:08:43;;;;;;;14.98;9.27;;;;;;;8.93;71.04;100434.63;6184548;23;20068;-66
2022/12/19 10:11:32;;;;;;;14.40;9.75;;;;;;;8.97;71.64;100420.16;6183524;23;20029;-64
2022/12/19 10:14:13;;;;;;;15.05;9.95;;;;;;;9.05;70.91;100441.66;6184868;23;20438;-64
2022/12/19 10:16:53;;;;;;;12.77;9.05;;;;;;;9.01;68.82;100458.13;6182303;23;20037;-63
2022/12/19 10:19:32;;;;;;;14.00;8.75;;;;;;;9.10;70.27;100422.13;6183656;23;20450;-64
2022/12/19 10:22:09;;;;;;;12.82;9.63;;;;;;;9.02;70.02;100420.03;6184626;23;20029;-64
2022/12/19 10:24:52;;;;;;;14.27;10.20;;;;;;;9.06;69.09;100448.88;6183486;23;20028;-64
2022/12/19 10:27:29;;;;;;;13.05;8.85;;;;;;;9.11;69.09;100457.94;6184340;23;20036;-63
2022/12/19 10:30:03;;;;;;;13.15;9.35;;;;;;;9.08;67.76;100477.19;6183478;23;20029;-64
2022/12/19 10:32:40;;;;;;;12.68;8.93;;;;;;;9.20;68.49;100460.00;6184504;23;20036;-64
2022/12/19 10:35:13;;;;;;;13.40;9.75;;;;;;;9.26;67.98;100456.00;6184289;23;20032;-63
2022/12/19 10:37:47;;;;;;;14.10;9.45;;;;;;;9.38;66.77;100450.78;6184474;23;20033;-64
2022/12/19 10:40:23;;;;;;;12.25;9.10;;;;;;;9.31;66.25;100455.91;6181464;23;20025;-62
2022/12/19 10:42:56;;;;;;;12.18;8.85;;;;;;;9.32;67.69;100446.44;6183814;23;20450;-64
2022/12/19 10:45:28;;;;;;;13.82;9.75;;;;;;;9.35;66.41;100455.00;6183763;23;20358;-63
2022/12/19 10:47:57;;;;;;;14.80;10.07;;;;;;;9.28;67.92;100446.25;6184079;23;20036;-64
2022/12/19 10:50:27;;;;;;;14.50;9.57;;;;;;;9.23;68.19;100454.66;6183771;23;20025;-64
2022/12/19 10:53:06;;;;;;;16.10;9.93;;;;;;;9.13;69.78;100440.94;6184190;23;20036;-64
2022/12/19 10:55:41;;;;;;;13.80;9.88;;;;;;;9.20;68.50;100438.63;6183858;23;20029;-64
2022/12/19 10:58:22;;;;;;;11.10;8.38;;;;;;;9.25;68.06;100435.72;6183418;23;20029;-65
2022/12/19 11:01:01;;;;;;;14.18;9.93;;;;;;;9.19;68.79;100431.38;6183364;23;20449;-65
2022/12/19 11:03:28;;;;;;;13.82;9.38;;;;;;;9.29;67.80;100424.81;6182785;23;20036;-64
2022/12/19 11:05:57;;;;;;;14.07;9.45;;;;;;;9.37;67.43;100435.25;6182215;23;20029;-64
2022/12/19 11:08:26;;;;;;;11.48;8.63;;;;;;;8.87;68.21;100424.75;6181570;23;20028;-64
2022/12/19 11:10:56;;;;;;;14.82;9.35;;;;;;;8.88;67.97;100420.84;6183352;23;20032;-63
2022/12/19 11:13:27;;;;;;;11.90;9.18;;;;;;;9.01;67.86;100413.66;6183490;23;20034;-64
2022/12/19 11:15:57;;;;;;;13.70;8.65;;;;;;;9.07;66.55;100439.38;6181932;23;20051;-64
2022/12/19 11:18:25;;;;;;;12.35;8.90;;;;;;;9.03;68.15;100416.13;6182302;23;20029;-63
2022/12/19 11:20:59;;;;;;;12.30;8.88;;;;;;;8.98;67.77;100419.81;6182901;23;20480;-64
2022/12/19 11:23:28;;;;;;;14.95;9.30;;;;;;;9.08;68.12;100425.19;6182554;23;20418;-63
2022/12/19 11:25:58;;;;;;;11.27;8.60;;;;;;;9.12;67.20;100422.66;6182715;23;20299;-63
2022/12/19 11:28:32;;;;;;;11.55;8.32;;;;;;;9.18;66.65;100434.50;6185686;23;20029;-63
2022/12/19 11:31:04;;;;;;;11.23;8.30;;;;;;;9.23;66.80;100423.28;6186170;23;20056;-63
2022/12/19 11:33:32;;;;;;;12.27;9.13;;;;;;;9.22;66.02;100428.00;6185981;23;20353;-63
2022/12/19 11:36:01;;;;;;;11.60;7.80;;;;;;;9.30;66.75;100427.31;6185559;23;20029;-63
2022/12/19 11:38:42;;;;;;;14.55;8.77;;;;;;;9.33;65.94;100429.47;6185397;23;20028;-62
2022/12/19 11:41:15;;;;;;;11.88;8.35;;;;;;;9.26;66.02;100437.38;6156473;23;20030;-63
2022/12/19 11:43:53;;;;;;;9.45;7.43;;;;;;;9.37;65.23;100426.09;6156089;23;20036;-63
2022/12/19 11:46:33;;;;;;;10.75;8.20;;;;;;;9.30;66.15;100426.47;6156254;23;20026;-62
2022/12/19 11:49:05;;;;;;;12.68;8.07;;;;;;;9.48;65.55;100435.88;6156542;23;20032;-63
2022/12/19 11:51:40;;;;;;;11.05;7.65;;;;;;;9.47;65.92;100420.28;6156686;23;20033;-63
2022/12/19 11:54:16;;;;;;;11.80;8.25;;;;;;;9.48;65.04;100416.41;6156006;23;20029;-62
2022/12/19 11:56:43;;;;;;;13.30;8.15;;;;;;;9.50;65.01;100425.25;6155821;23;20029;-63
2022/12/19 11:59:18;;;;;;;11.32;8.10;;;;;;;9.71;64.44;100425.66;6156248;23;20033;-63
2022/12/19 12:02:02;;;;;;;11.15;7.82;;;;;;;9.53;64.43;100438.53;6155974;23;20048;-63
2022/12/19 12:04:55;;;;;;;10.57;7.65;;;;;;;9.62;64.53;100433.09;6156356;23;20439;-63
2022/12/19 12:07:22;;;;;;;12.38;7.97;;;;;;;9.66;63.94;100465.53;6156190;23;20029;-62
2022/12/19 12:09:57;;;;;;;10.65;7.55;;;;;;;9.78;63.35;100428.03;6154724;23;20021;-63
2022/12/19 12:12:28;;;;;;;10.90;7.00;;;;;;;9.71;63.10;100428.44;6154940;23;20025;-62
2022/12/19 12:15:14;;;;;;;10.20;7.43;;;;;;;9.60;63.27;100440.94;6155845;23;20324;-62
2022/12/19 12:17:51;;;;;;;10.10;7.45;;;;;;;9.73;63.17;100424.22;6155704;23;20037;-62
2022/12/19 12:20:30;;;;;;;11.80;7.90;;;;;;;9.78;62.43;100422.47;6156347;23;20021;-62
2022/12/19 12:23:13;;;;;;;9.25;7.35;;;;;;;9.64;63.63;100414.97;6156290;23;20062;-61
2022/12/19 12:25:50;;;;;;;11.15;7.30;;;;;;;9.88;61.85;100428.63;6155442;23;20040;-60
2022/12/19 12:28:47;;;;;;;11.57;6.82;;;;;;;9.92;61.53;100420.50;6155320;23;20080;-60
2022/12/19 12:31:38;;;;;;;9.88;6.97;;;;;;;9.88;62.58;100431.41;6155517;23;20032;-61
2022/12/19 12:34:37;;;;;;;9.52;6.97;;;;;;;10.03;61.03;100421.91;6155704;23;20342;-61
2022/12/19 12:37:21;;;;;;;9.90;7.35;;;;;;;9.97;61.52;100414.81;6115628;23;20052;-60
2022/12/19 12:40:02;;;;;;;9.75;7.13;;;;;;;10.10;60.84;100399.22;6169209;23;20472;-60
2022/12/19 12:42:42;;;;;;;11.00;7.22;;;;;;;10.15;61.04;100402.72;6184950;23;20029;-60
2022/12/19 12:45:20;;;;;;;10.05;6.97;;;;;;;10.04;61.03;100394.94;6185698;23;20029;-60
2022/12/19 12:47:52;;;;;;;10.60;7.35;;;;;;;10.15;60.87;100374.88;6184774;23;20029;-60
2022/12/19 12:50:22;;;;;;;9.95;6.88;;;;;;;10.19;60.37;100390.97;6182592;23;20442;-60
2022/12/19 12:52:52;;;;;;;11.10;7.30;;;;;;;10.06;60.17;100382.34;6184072;23;20693;-61
2022/12/19 12:55:25;;;;;;;;;;;;;;;10.34;60.70;100382.28;6183295;23;20036;-60
2022/12/19 12:57:52;;;;;;;10.05;6.68;;;;;;;10.40;60.21;100358.75;6181777;23;19926;-61
2022/12/19 13:00:23;;;;;;;9.00;6.60;;;;;;;10.48;60.41;100371.09;6183770;23;20025;-60
2022/12/19 13:02:56;;;;;;;10.10;7.10;;;;;;;10.63;59.39;100367.09;6184038;23;20029;-60
2022/12/19 13:05:32;;;;;;;9.15;6.43;;;;;;;10.68;58.35;100365.00;6182962;23;20055;-61
2022/12/19 13:08:02;;;;;;;9.35;6.65;;;;;;;10.43;59.17;100366.44;6182425;23;20029;-60
2022/12/19 13:10:31;;;;;;;8.93;6.32;;;;;;;10.58;58.97;100365.25;6183841;23;20033;-60
2022/12/19 13:13:01;;;;;;;7.63;6.30;;;;;;;10.85;58.38;100386.56;6183092;23;20032;-61
2022/12/19 13:15:38;;;;;;;8.52;6.65;;;;;;;10.87;57.33;100375.91;6183378;23;20036;-60
2022/12/19 13:18:31;;;;;;;8.55;6.20;;;;;;;10.97;57.67;100375.66;6183754;23;20025;-61
2022/12/19 13:21:00;;;;;;;8.52;6.72;;;;;;;10.93;57.52;100373.84;6184123;23;20036;-61
2022/12/19 13:26:48;;;;;;;;;;;;;;;11.24;56.62;100365.47;6181475;23;20362;-61
2022/12/19 13:29:50;;;;;;;11.30;6.38;;;;;;;11.28;56.37;100363.69;6183141;23;19923;-61
2022/12/19 13:32:17;;;;;;;8.55;6.05;;;;;;;11.36;55.63;100353.72;6184195;23;20035;-60
2022/12/19 13:34:57;;;;;;;10.15;6.05;;;;;;;11.34;55.78;100351.25;6182484;23;20433;-61
2022/12/19 13:37:32;;;;;;;;;;;;;;;11.38;55.83;100349.44;6184946;23;20081;-60
2022/12/19 13:40:06;;;;;;;7.18;5.43;;;;;;;11.54;54.85;100346.19;6184197;23;20241;-60
2022/12/19 13:45:28;;;;;;;10.52;6.00;;;;;;;11.44;54.87;100360.44;6195852;23;20028;-60
2022/12/19 13:48:02;;;;;;;7.78;4.95;;;;;;;11.45;54.78;100359.31;6183773;23;20029;-62
2022/12/19 13:50:35;;;;;;;7.78;5.32;;;;;;;11.43;55.00;100342.91;6183723;23;20032;-62
2022/12/19 13:53:09;;;;;;;9.23;5.70;;;;;;;11.45;55.20;100342.59;6183759;23;20032;-62
2022/12/19 13:55:39;;;;;;;8.55;4.90;;;;;;;11.27;55.30;100344.47;6183553;23;20036;-61
2022/12/19 13:58:07;;;;;;;7.18;5.13;;;;;;;11.23;55.44;100344.28;6183233;23;20028;-61
2022/12/19 14:00:43;;;;;;;8.35;5.40;;;;;;;11.17;55.40;100351.16;6182670;23;20025;-60
2022/12/19 14:03:17;;;;;;;6.20;5.20;;;;;;;11.25;55.05;100355.94;6183002;23;20029;-61
2022/12/19 14:05:46;;;;;;;7.25;5.68;;;;;;;11.12;55.42;100334.56;6181780;23;20028;-61
2022/12/19 14:08:19;;;;;;;7.10;5.90;;;;;;;11.18;55.66;100338.88;6183249;23;20350;-62
2022/12/19 14:10:50;;;;;;;7.28;5.63;;;;;;;11.20;55.17;100361.66;6182686;23;20477;-59
2022/12/19 14:16:02;;;;;;;9.25;5.65;;;;;;;11.04;55.72;100332.56;6127630;23;20029;-61
2022/12/19 14:18:32;;;;;;;10.38;5.63;;;;;;;11.15;55.67;100320.00;6182971;23;20315;-61
2022/12/19 14:21:13;;;;;;;;;;;;;;;10.99;55.51;100336.31;6184426;23;20351;-61
2022/12/19 14:23:40;;;;;;;7.70;5.60;;;;;;;11.01;55.98;100345.19;6183835;23;20126;-60
2022/12/19 14:26:12;;;;;;;9.00;5.85;;;;;;;10.97;55.72;100321.88;6183174;23;20029;-61
2022/12/19 14:28:44;;;;;;;6.57;5.30;;;;;;;10.88;55.66;100341.34;6183849;23;20033;-61
2022/12/19 14:31:16;;;;;;;8.00;5.10;;;;;;;10.81;56.24;100327.03;6180453;23;20072;-62
2022/12/19 14:33:46;;;;;;;7.53;5.57;;;;;;;10.83;56.09;100310.00;6183527;23;20025;-61
2022/12/19 14:36:20;;;;;;;;;;;;;;;10.57;56.82;100319.88;6181734;23;20029;-60
2022/12/19 14:38:49;;;;;;;8.68;5.57;;;;;;;10.69;56.78;100313.72;6183608;23;19916;-62
2022/12/19 14:44:24;;;;;;;8.40;5.40;;;;;;;10.40;57.23;100305.84;6186238;23;20028;-63
2022/12/19 14:47:05;;;;;;;9.88;5.80;;;;;;;10.49;56.75;100303.94;6184023;23;20062;-63
2022/12/19 14:49:34;;;;;;;9.00;5.50;;;;;;;10.54;56.39;100308.53;6183053;23;20029;-63
2022/12/19 14:52:05;;;;;;;7.63;5.40;;;;;;;10.53;56.96;100301.34;6184155;23;20025;-58
2022/12/19 14:54:32;;;;;;;7.40;4.95;;;;;;;10.33;57.27;100294.31;6183794;23;20439;-59
2022/12/19 14:57:02;;;;;;;8.88;5.28;;;;;;;10.30;57.57;100278.25;6183348;23;20025;-59
2022/12/19 14:59:34;;;;;;;8.27;5.32;;;;;;;10.33;57.47;100297.09;6183932;23;20048;-61
2022/12/19 15:02:13;;;;;;;8.45;4.97;;;;;;;10.06;57.98;100293.28;6183480;23;20029;-59
2022/12/19 15:04:44;;;;;;;7.18;5.22;;;;;;;10.13;57.96;100293.66;6184454;23;20025;-64
2022/12/19 15:07:17;;;;;;;7.63;4.95;;;;;;;10.28;58.18;100292.47;6183534;23;20451;-61
2022/12/19 15:09:55;;;;;;;6.35;5.15;;;;;;;10.27;58.27;100301.97;6183881;23;20025;-61
2022/12/19 15:15:20;;;;;;;6.57;4.63;;;;;;;10.16;57.54;100309.75;6194481;23;20036;-58
2022/12/19 15:17:50;;;;;;;8.32;4.78;;;;;;;10.20;57.33;100303.53;6183471;23;20025;-63
2022/12/19 15:20:18;;;;;;;6.95;4.68;;;;;;;10.19;57.19;100299.94;6182846;23;20032;-64
2022/12/19 15:22:47;;;;;;;7.15;5.00;;;;;;;10.26;57.28;100308.66;6182979;23;20036;-60
2022/12/19 15:25:15;;;;;;;7.78;4.70;;;;;;;10.24;58.33;100305.34;6183336;23;20029;-60
2022/12/19 15:27:44;;;;;;;7.28;5.00;;;;;;;10.23;57.46;100308.47;6183956;23;20438;-59
2022/12/19 15:30:16;;;;;;;8.85;7.30;;;;;;;10.22;57.51;100302.06;6183288;23;20025;-59
2022/12/19 15:32:44;;;;;;;7.85;4.57;;;;;;;10.24;57.65;100298.97;6183531;23;20025;-59
2022/12/19 15:35:13;;;;;;;6.25;4.45;;;;;;;10.47;57.69;100280.31;6182420;23;20446;-60
2022/12/19 15:37:40;;;;;;;9.23;6.20;;;;;;;10.46;57.32;100284.28;6183191;23;20029;-59
2022/12/19 15:40:15;;;;;;;8.48;5.85;;;;;;;10.22;57.92;100295.69;6182272;23;20025;-59
2022/12/19 15:42:44;;;;;;;6.53;4.90;;;;;;;10.30;57.20;100293.00;6183163;23;20025;-59
2022/12/19 15:45:15;;;;;;;9.80;5.50;;;;;;;10.36;57.65;100290.91;6184131;23;20029;-59
2022/12/19 15:47:43;;;;;;;7.60;5.30;;;;;;;10.29;58.43;100282.13;6181212;23;20021;-59
2022/12/19 15:50:18;;;;;;;8.88;6.28;;;;;;;10.28;57.54;100270.19;6183189;23;20032;-59
2022/12/19 15:52:46;;;;;;;8.38;6.10;;;;;;;10.22;58.59;100279.81;6183217;23;20029;-60
2022/12/19 15:55:16;;;;;;;5.63;4.55;;;;;;;10.33;58.63;100253.41;6183552;23;20029;-59
2022/12/19 15:57:44;;;;;;;;;;;;;;;10.34;58.11;100255.03;6182836;23;20036;-60
2022/12/19 16:00:18;;;;;;;12.45;8.98;;;;;;;10.45;57.52;100244.44;6183297;23;19923;-59
2022/12/19 16:02:46;;;;;;;6.85;4.40;;;;;;;10.22;57.93;100234.44;6183323;23;20423;-59
2022/12/19 16:05:16;;;;;;;5.93;4.28;;;;;;;10.36;58.12;100233.25;6183128;23;20052;-59
2022/12/19 16:07:43;;;;;;;7.40;4.57;;;;;;;10.43;57.81;100223.63;6183022;23;20431;-60
2022/12/19 16:10:13;;;;;;;6.30;4.07;;;;;;;10.33;58.14;100230.28;6183590;23;20025;-60
2022/12/19 16:12:43;;;;;;;;;;;;;;;10.54;57.86;100227.78;6182894;23;20033;-59
2022/12/19 16:15:18;;;;;;;6.40;4.40;;;;;;;10.48;58.53;100229.09;6184335;23;19916;-60
2022/12/19 16:17:45;;;;;;;6.75;4.10;;;;;;;10.57;58.10;100227.97;6184725;23;20029;-60
2022/12/19 16:20:18;;;;;;;7.03;5.07;;;;;;;10.65;57.93;100231.94;6182643;23;20036;-60
2022/12/19 16:22:45;;;;;;;6.95;4.18;;;;;;;10.69;57.77;100220.97;6184454;23;20025;-59
2022/12/19 16:25:13;;;;;;;7.75;4.30;;;;;;;10.82;57.68;100225.63;6184474;23;20029;-60
2022/12/19 16:27:43;;;;;;;6.50;4.50;;;;;;;10.61;58.34;100221.75;6183707;23;20040;-60
2022/12/19 16:30:18;;;;;;;6.30;3.95;;;;;;;10.62;57.87;100226.19;6184565;23;20036;-60
2022/12/19 16:32:46;;;;;;;6.90;3.88;;;;;;;10.73;57.27;100230.31;6184389;23;20035;-59
2022/12/19 16:35:16;;;;;;;6.18;4.60;;;;;;;10.79;58.06;100236.56;6183610;23;20454;-60
2022/12/19 16:37:43;;;;;;;7.60;4.88;;;;;;;10.72;58.29;100231.47;6184038;23;20029;-59
2022/12/19 16:40:15;;;;;;;7.38;4.15;;;;;;;10.85;57.46;100250.03;6182754;23;20025;-60
2022/12/19 16:42:45;;;;;;;7.78;5.32;;;;;;;10.78;57.92;100246.91;6183764;23;20040;-60
2022/12/19 16:45:20;;;;;;;5.80;4.32;;;;;;;10.82;57.90;100256.25;6182896;23;20037;-60
2022/12/19 16:47:47;;;;;;;7.30;4.55;;;;;;;10.84;57.54;100240.03;6183549;23;20029;-60
2022/12/19 16:50:19;;;;;;;7.70;4.88;;;;;;;10.69;57.51;100237.69;6185267;23;20033;-59
2022/12/19 16:52:46;;;;;;;7.50;5.18;;;;;;;10.84;57.38;100245.63;6185020;23;20032;-59
2022/12/19 16:55:14;;;;;;;5.15;4.00;;;;;;;10.78;57.82;100260.84;6185229;23;20029;-59
2022/12/19 16:57:46;;;;;;;6.70;4.55;;;;;;;10.79;58.14;100259.69;6184268;23;20040;-59
2022/12/19 17:00:16;;;;;;;8.15;4.60;;;;;;;10.82;58.44;100281.34;6184423;23;20025;-59
2022/12/19 17:02:48;;;;;;;8.57;4.43;;;;;;;10.90;58.00;100274.16;6183914;23;20032;-60
2022/12/19 17:05:21;;;;;;;6.75;4.63;;;;;;;10.99;57.90;100268.63;6185020;23;20417;-59
2022/12/19 17:07:56;;;;;;;7.40;4.72;;;;;;;10.96;57.65;100270.06;6184594;23;20036;-59
2022/12/19 17:10:28;;;;;;;6.68;4.13;;;;;;;10.94;57.86;100301.06;6182642;23;20052;-60
2022/12/19 17:12:58;;;;;;;5.75;4.55;;;;;;;11.00;57.95;100284.19;6184554;23;20036;-59
2022/12/19 17:15:29;;;;;;;8.45;5.10;;;;;;;10.76;58.59;100294.56;6185030;23;20033;-64
2022/12/19 17:17:58;;;;;;;6.03;4.32;;;;;;;10.86;58.47;100281.53;6184885;23;20341;-64
2022/12/19 17:20:28;;;;;;;6.82;4.53;;;;;;;10.68;58.44;100272.25;6183638;23;20025;-64
2022/12/19 17:22:55;;;;;;;7.53;5.32;;;;;;;10.68;58.89;100298.13;6181403;23;20025;-64
2022/12/19 17:25:25;;;;;;;5.63;4.68;;;;;;;10.61;59.08;100300.56;6182103;23;20413;-64
2022/12/19 17:27:53;;;;;;;;;;;;;;;10.65;59.46;100281.25;6181756;23;20029;-64
2022/12/19 17:30:27;;;;;;;9.75;5.47;;;;;;;10.70;58.82;100275.53;6183416;23;20214;-64
2022/12/19 17:32:55;;;;;;;7.18;4.60;;;;;;;10.74;58.79;100273.75;6183409;23;20048;-64
2022/12/19 17:35:26;;;;;;;7.10;5.38;;;;;;;10.61;59.84;100266.34;6184494;23;20036;-64
2022/12/19 17:37:55;;;;;;;7.35;4.80;;;;;;;10.68;59.06;100280.59;6183441;23;20040;-64
2022/12/19 17:40:25;;;;;;;7.20;5.22;;;;;;;10.54;59.88;100253.69;6184585;23;20029;-64
2022/12/19 17:42:53;;;;;;;8.95;6.07;;;;;;;10.53;60.20;100284.63;6182242;23;20025;-64
2022/12/19 17:45:22;;;;;;;7.18;4.93;;;;;;;10.66;59.48;100305.19;6183955;23;20029;-64
2022/12/19 17:47:51;;;;;;;7.43;5.30;;;;;;;10.62;59.87;100281.88;6182156;23;20028;-64
2022/12/19 17:50:23;;;;;;;7.68;5.20;;;;;;;10.50;59.50;100291.66;6183546;23;20025;-62
2022/12/19 17:52:51;;;;;;;7.60;5.60;;;;;;;10.59;59.79;100286.13;6183558;23;20029;-64
2022/12/19 17:55:21;;;;;;;7.68;5.82;;;;;;;10.61;59.94;100288.59;6184306;23;20036;-63
2022/12/19 17:57:49;;;;;;;8.48;5.80;;;;;;;10.64;60.25;100296.31;6184099;23;20485;-64
2022/12/19 18:00:18;;;;;;;9.38;5.45;;;;;;;10.50;60.05;100302.81;6183587;23;20029;-63
2022/12/19 18:02:49;;;;;;;7.47;4.88;;;;;;;10.60;60.38;100287.75;6183460;23;20025;-63
2022/12/19 18:05:21;;;;;;;5.95;4.43;;;;;;;10.72;59.44;100276.03;6184107;23;20036;-64
2022/12/19 18:07:49;;;;;;;8.70;5.28;;;;;;;10.64;59.96;100302.69;6181338;23;20036;-64
2022/12/19 18:10:19;;;;;;;6.68;5.20;;;;;;;10.62;59.73;100293.03;6183902;23;20358;-63
2022/12/19 18:12:47;;;;;;;6.35;4.97;;;;;;;10.70;59.96;100306.19;6184161;23;20021;-64
2022/12/19 18:15:15;;;;;;;6.50;4.90;;;;;;;10.85;59.48;100285.44;6184582;23;20028;-64
2022/12/19 18:17:43;;;;;;;7.15;4.82;;;;;;;10.94;59.39;100317.78;6182723;23;20025;-63
2022/12/19 18:20:24;;;;;;;6.25;4.38;;;;;;;10.80;59.60;100300.34;6183500;23;20025;-63
2022/12/19 18:22:52;;;;;;;5.70;4.50;;;;;;;10.86;59.30;100314.97;6183329;23;20021;-63
2022/12/19 18:25:22;;;;;;;7.50;5.55;;;;;;;10.88;59.25;100307.09;6184240;23;20742;-63
2022/12/19 18:27:50;;;;;;;6.72;5.30;;;;;;;10.91;59.45;100315.63;6183629;23;20025;-63
2022/12/19 18:30:19;;;;;;;6.13;5.22;;;;;;;10.82;59.49;100306.41;6184354;23;20025;-63
2022/12/19 18:32:49;;;;;;;7.70;4.78;;;;;;;10.93;59.40;100309.75;6184684;23;20021;-62
2022/12/19 18:35:19;;;;;;;7.03;5.13;;;;;;;10.96;59.52;100301.56;6184261;23;20338;-63
2022/12/19 18:37:49;;;;;;;7.70;4.85;;;;;;;10.92;59.80;100316.47;6183198;23;20433;-64
2022/12/19 18:40:19;;;;;;;6.65;4.90;;;;;;;10.84;59.71;100295.78;6182957;23;20036;-64
2022/12/19 18:42:47;;;;;;;4.82;3.92;;;;;;;10.84;59.87;100309.69;6184096;23;20327;-63
2022/12/19 18:45:16;;;;;;;7.93;5.13;;;;;;;10.80;59.85;100303.13;6183629;23;20032;-63
2022/12/19 18:47:45;;;;;;;8.05;5.22;;;;;;;10.97;59.54;100305.97;6184016;23;20025;-63
2022/12/19 18:50:19;;;;;;;6.97;5.15;;;;;;;10.85;59.58;100300.19;6183477;23;20039;-63
2022/12/19 18:52:48;;;;;;;6.10;4.53;;;;;;;10.81;60.21;100306.72;6183157;23;20020;-64
2022/12/19 18:55:18;;;;;;;8.07;5.65;;;;;;;10.98;59.68;100326.31;6183633;23;20458;-65
2022/12/19 18:57:46;;;;;;;6.32;5.05;;;;;;;10.85;59.82;100288.22;6184111;23;20032;-63
2022/12/19 19:00:15;;;;;;;7.25;4.97;;;;;;;10.91;60.25;100300.88;6183027;23;20346;-63
2022/12/19 19:02:48;;;;;;;5.60;3.95;;;;;;;11.10;59.39;100309.00;6182919;23;20036;-63
2022/12/19 19:05:18;;;;;;;8.02;5.93;;;;;;;10.91;60.02;100315.63;6183095;23;20032;-63
2022/12/19 19:07:46;;;;;;;6.28;4.78;;;;;;;10.93;59.59;100316.13;6183315;23;20032;-63
2022/12/19 19:10:22;;;;;;;7.75;4.95;;;;;;;10.96;60.42;100315.50;6184157;23;20029;-63
2022/12/19 19:12:50;;;;;;;6.70;4.93;;;;;;;10.83;60.15;100294.13;6183469;23;20025;-63
2022/12/19 19:15:19;;;;;;;9.23;5.82;;;;;;;10.77;60.15;100317.69;6183323;23;20051;-63
2022/12/19 19:17:48;;;;;;;7.80;5.43;;;;;;;10.65;61.21;100304.34;6183050;23;20040;-63
2022/12/19 19:20:17;;;;;;;8.18;5.35;;;;;;;10.80;60.52;100321.81;6182880;23;20029;-63
2022/12/19 19:22:45;;;;;;;9.07;5.50;;;;;;;10.89;60.75;100323.47;6180737;23;20048;-61
2022/12/19 19:25:13;;;;;;;7.57;5.40;;;;;;;11.00;60.19;100324.03;6182970;23;20036;-62
2022/12/19 19:27:41;;;;;;;6.70;5.40;;;;;;;11.01;59.96;100327.66;6183462;23;20029;-63
2022/12/19 19:30:10;;;;;;;7.22;5.07;;;;;;;10.96;60.13;100325.81;6182352;23;20025;-63
2022/12/19 19:32:43;;;;;;;6.35;4.53;;;;;;;10.93;60.49;100335.63;6182433;23;20021;-62
2022/12/19 19:35:13;;;;;;;8.48;5.32;;;;;;;10.99;60.69;100319.59;6183231;23;20469;-63